sensor_id;sensor_type;location;lat;lon;timestamp;temperature;humidity
67182;DHT22;54114;53.524;49.396;2023-05-10T00:01:16;11.20;34.80
67182;DHT22;54114;53.524;49.396;2023-05-10T00:03:43;11.20;34.80
67182;DHT22;54114;53.524;49.396;2023-05-10T00:06:09;11.10;34.80
67182;DHT22;54114;53.524;49.396;2023-05-10T00:08:36;11.10;34.90
67182;DHT22;54114;53.524;49.396;2023-05-10T00:11:03;11.00;35.00
67182;DHT22;54114;53.524;49.396;2023-05-10T00:13:29;11.00;35.00
67182;DHT22;54114;53.524;49.396;2023-05-10T00:15:56;11.00;35.00
67182;DHT22;54114;53.524;49.396;2023-05-10T00:18:23;10.90;35.10
67182;DHT22;54114;53.524;49.396;2023-05-10T00:20:49;10.90;35.10
67182;DHT22;54114;53.524;49.396;2023-05-10T00:23:16;10.80;35.00
67182;DHT22;54114;53.524;49.396;2023-05-10T00:25:43;10.90;35.10
67182;DHT22;54114;53.524;49.396;2023-05-10T00:28:09;10.90;35.10
67182;DHT22;54114;53.524;49.396;2023-05-10T00:30:36;10.80;35.10
67182;DHT22;54114;53.524;49.396;2023-05-10T00:33:03;10.80;35.10
67182;DHT22;54114;53.524;49.396;2023-05-10T00:35:29;10.80;35.20
67182;DHT22;54114;53.524;49.396;2023-05-10T00:37:56;10.80;35.30
67182;DHT22;54114;53.524;49.396;2023-05-10T00:40:23;10.80;35.30
67182;DHT22;54114;53.524;49.396;2023-05-10T00:42:50;10.80;35.30
67182;DHT22;54114;53.524;49.396;2023-05-10T00:45:16;10.80;35.30
67182;DHT22;54114;53.524;49.396;2023-05-10T00:47:43;10.80;35.30
67182;DHT22;54114;53.524;49.396;2023-05-10T00:50:10;10.70;35.30
67182;DHT22;54114;53.524;49.396;2023-05-10T00:52:37;10.70;35.40
67182;DHT22;54114;53.524;49.396;2023-05-10T00:55:05;10.70;35.40
67182;DHT22;54114;53.524;49.396;2023-05-10T00:57:32;10.60;35.40
67182;DHT22;54114;53.524;49.396;2023-05-10T00:59:59;10.70;35.40
67182;DHT22;54114;53.524;49.396;2023-05-10T01:02:26;10.70;35.40
67182;DHT22;54114;53.524;49.396;2023-05-10T01:04:53;10.60;35.30
67182;DHT22;54114;53.524;49.396;2023-05-10T01:07:20;10.70;35.30
67182;DHT22;54114;53.524;49.396;2023-05-10T01:09:47;10.70;35.30
67182;DHT22;54114;53.524;49.396;2023-05-10T01:12:15;10.70;35.30
67182;DHT22;54114;53.524;49.396;2023-05-10T01:14:42;10.60;35.20
67182;DHT22;54114;53.524;49.396;2023-05-10T01:17:09;10.70;35.30
67182;DHT22;54114;53.524;49.396;2023-05-10T01:19:37;10.70;35.20
67182;DHT22;54114;53.524;49.396;2023-05-10T01:22:13;10.70;35.20
67182;DHT22;54114;53.524;49.396;2023-05-10T01:33:07;10.90;34.80
67182;DHT22;54114;53.524;49.396;2023-05-10T01:36:02;11.00;34.70
67182;DHT22;54114;53.524;49.396;2023-05-10T01:46:48;11.30;34.40
67182;DHT22;54114;53.524;49.396;2023-05-10T01:49:36;11.40;34.40
67182;DHT22;54114;53.524;49.396;2023-05-10T01:52:10;11.50;34.40
67182;DHT22;54114;53.524;49.396;2023-05-10T01:54:42;11.60;34.30
67182;DHT22;54114;53.524;49.396;2023-05-10T01:57:14;11.70;34.10
67182;DHT22;54114;53.524;49.396;2023-05-10T01:59:44;11.80;33.90
67182;DHT22;54114;53.524;49.396;2023-05-10T02:02:12;11.90;33.90
67182;DHT22;54114;53.524;49.396;2023-05-10T02:04:41;12.00;33.80
67182;DHT22;54114;53.524;49.396;2023-05-10T02:07:08;12.10;33.70
67182;DHT22;54114;53.524;49.396;2023-05-10T02:09:37;12.20;33.60
67182;DHT22;54114;53.524;49.396;2023-05-10T02:12:05;12.30;33.50
67182;DHT22;54114;53.524;49.396;2023-05-10T02:14:35;12.40;33.40
67182;DHT22;54114;53.524;49.396;2023-05-10T02:17:05;12.50;33.10
67182;DHT22;54114;53.524;49.396;2023-05-10T02:19:32;12.50;33.00
67182;DHT22;54114;53.524;49.396;2023-05-10T02:22:01;12.60;32.90
67182;DHT22;54114;53.524;49.396;2023-05-10T02:24:28;12.70;32.90
67182;DHT22;54114;53.524;49.396;2023-05-10T02:26:56;12.80;32.70
67182;DHT22;54114;53.524;49.396;2023-05-10T02:29:25;13.00;32.80
67182;DHT22;54114;53.524;49.396;2023-05-10T02:31:54;13.00;32.60
67182;DHT22;54114;53.524;49.396;2023-05-10T02:34:22;13.10;32.60
67182;DHT22;54114;53.524;49.396;2023-05-10T02:36:50;13.10;32.50
67182;DHT22;54114;53.524;49.396;2023-05-10T02:39:19;13.20;32.40
67182;DHT22;54114;53.524;49.396;2023-05-10T02:41:48;13.30;32.30
67182;DHT22;54114;53.524;49.396;2023-05-10T02:44:19;13.40;32.10
67182;DHT22;54114;53.524;49.396;2023-05-10T02:46:46;13.50;32.00
67182;DHT22;54114;53.524;49.396;2023-05-10T02:49:14;13.60;31.90
67182;DHT22;54114;53.524;49.396;2023-05-10T02:51:47;13.80;31.80
67182;DHT22;54114;53.524;49.396;2023-05-10T02:54:24;13.90;31.60
67182;DHT22;54114;53.524;49.396;2023-05-10T02:56:57;14.10;31.30
67182;DHT22;54114;53.524;49.396;2023-05-10T02:59:26;14.20;31.10
67182;DHT22;54114;53.524;49.396;2023-05-10T03:01:53;14.30;30.90
67182;DHT22;54114;53.524;49.396;2023-05-10T03:04:20;14.30;30.80
67182;DHT22;54114;53.524;49.396;2023-05-10T03:06:47;14.30;30.70
67182;DHT22;54114;53.524;49.396;2023-05-10T03:09:14;14.40;30.60
67182;DHT22;54114;53.524;49.396;2023-05-10T03:17:41;14.50;30.40
67182;DHT22;54114;53.524;49.396;2023-05-10T03:20:22;14.60;30.20
67182;DHT22;54114;53.524;49.396;2023-05-10T03:22:55;14.80;30.10
67182;DHT22;54114;53.524;49.396;2023-05-10T03:25:29;14.80;30.00
67182;DHT22;54114;53.524;49.396;2023-05-10T03:27:58;14.90;30.00
67182;DHT22;54114;53.524;49.396;2023-05-10T03:30:28;15.00;30.00
67182;DHT22;54114;53.524;49.396;2023-05-10T03:32:55;15.20;30.00
67182;DHT22;54114;53.524;49.396;2023-05-10T03:35:23;15.30;29.80
67182;DHT22;54114;53.524;49.396;2023-05-10T03:37:50;15.50;29.60
67182;DHT22;54114;53.524;49.396;2023-05-10T03:40:17;15.60;29.40
67182;DHT22;54114;53.524;49.396;2023-05-10T03:42:43;15.80;29.30
67182;DHT22;54114;53.524;49.396;2023-05-10T03:45:10;15.90;29.20
67182;DHT22;54114;53.524;49.396;2023-05-10T03:47:37;16.20;29.00
67182;DHT22;54114;53.524;49.396;2023-05-10T03:50:04;16.30;29.00
67182;DHT22;54114;53.524;49.396;2023-05-10T03:52:31;16.50;28.90
67182;DHT22;54114;53.524;49.396;2023-05-10T03:54:58;16.50;28.80
67182;DHT22;54114;53.524;49.396;2023-05-10T03:57:24;16.60;28.80
67182;DHT22;54114;53.524;49.396;2023-05-10T03:59:51;16.80;28.70
67182;DHT22;54114;53.524;49.396;2023-05-10T04:02:18;16.90;28.50
67182;DHT22;54114;53.524;49.396;2023-05-10T04:04:44;17.00;28.40
67182;DHT22;54114;53.524;49.396;2023-05-10T04:07:11;17.10;28.30
67182;DHT22;54114;53.524;49.396;2023-05-10T04:09:38;17.30;28.10
67182;DHT22;54114;53.524;49.396;2023-05-10T04:12:04;17.40;27.90
67182;DHT22;54114;53.524;49.396;2023-05-10T04:14:31;17.50;27.70
67182;DHT22;54114;53.524;49.396;2023-05-10T04:16:58;17.60;27.60
67182;DHT22;54114;53.524;49.396;2023-05-10T04:19:32;17.60;27.40
67182;DHT22;54114;53.524;49.396;2023-05-10T04:21:59;17.70;27.30
67182;DHT22;54114;53.524;49.396;2023-05-10T04:24:25;17.80;27.30
67182;DHT22;54114;53.524;49.396;2023-05-10T04:26:54;18.00;27.20
67182;DHT22;54114;53.524;49.396;2023-05-10T04:29:21;18.10;27.10
67182;DHT22;54114;53.524;49.396;2023-05-10T04:31:47;18.20;27.00
67182;DHT22;54114;53.524;49.396;2023-05-10T04:34:14;18.20;26.90
67182;DHT22;54114;53.524;49.396;2023-05-10T04:36:41;18.30;26.80
67182;DHT22;54114;53.524;49.396;2023-05-10T04:39:07;18.50;26.70
67182;DHT22;54114;53.524;49.396;2023-05-10T04:44:49;18.70;26.40
67182;DHT22;54114;53.524;49.396;2023-05-10T04:47:17;18.90;26.20
67182;DHT22;54114;53.524;49.396;2023-05-10T04:49:44;19.00;26.10
67182;DHT22;54114;53.524;49.396;2023-05-10T04:52:11;19.20;26.10
67182;DHT22;54114;53.524;49.396;2023-05-10T04:54:37;19.40;25.90
67182;DHT22;54114;53.524;49.396;2023-05-10T04:57:04;19.40;25.80
67182;DHT22;54114;53.524;49.396;2023-05-10T04:59:31;19.70;25.80
67182;DHT22;54114;53.524;49.396;2023-05-10T05:01:57;19.70;25.60
67182;DHT22;54114;53.524;49.396;2023-05-10T05:04:24;19.80;25.50
67182;DHT22;54114;53.524;49.396;2023-05-10T05:06:51;19.90;25.40
67182;DHT22;54114;53.524;49.396;2023-05-10T05:09:17;20.00;25.30
67182;DHT22;54114;53.524;49.396;2023-05-10T05:11:44;20.10;25.30
67182;DHT22;54114;53.524;49.396;2023-05-10T05:14:11;20.30;25.10
67182;DHT22;54114;53.524;49.396;2023-05-10T05:16:37;20.50;25.10
67182;DHT22;54114;53.524;49.396;2023-05-10T05:19:04;20.70;24.90
67182;DHT22;54114;53.524;49.396;2023-05-10T05:21:30;20.90;24.80
67182;DHT22;54114;53.524;49.396;2023-05-10T05:23:58;21.10;24.60
67182;DHT22;54114;53.524;49.396;2023-05-10T05:26:26;21.20;24.30
67182;DHT22;54114;53.524;49.396;2023-05-10T05:28:53;21.40;24.40
67182;DHT22;54114;53.524;49.396;2023-05-10T05:31:20;21.50;24.20
67182;DHT22;54114;53.524;49.396;2023-05-10T05:33:47;21.50;24.20
67182;DHT22;54114;53.524;49.396;2023-05-10T05:36:14;21.60;24.10
67182;DHT22;54114;53.524;49.396;2023-05-10T05:38:40;21.70;24.10
67182;DHT22;54114;53.524;49.396;2023-05-10T05:41:07;21.90;24.00
67182;DHT22;54114;53.524;49.396;2023-05-10T05:43:33;22.20;23.90
67182;DHT22;54114;53.524;49.396;2023-05-10T05:46:00;22.50;23.70
67182;DHT22;54114;53.524;49.396;2023-05-10T05:48:27;22.90;23.50
67182;DHT22;54114;53.524;49.396;2023-05-10T05:50:56;23.30;23.10
67182;DHT22;54114;53.524;49.396;2023-05-10T05:53:23;23.70;22.70
67182;DHT22;54114;53.524;49.396;2023-05-10T05:55:57;24.10;22.40
67182;DHT22;54114;53.524;49.396;2023-05-10T05:58:25;24.60;22.10
67182;DHT22;54114;53.524;49.396;2023-05-10T06:00:52;24.90;21.90
67182;DHT22;54114;53.524;49.396;2023-05-10T06:03:19;25.40;21.70
67182;DHT22;54114;53.524;49.396;2023-05-10T06:05:47;25.60;21.60
67182;DHT22;54114;53.524;49.396;2023-05-10T06:08:14;25.90;21.30
67182;DHT22;54114;53.524;49.396;2023-05-10T06:10:41;26.20;21.00
67182;DHT22;54114;53.524;49.396;2023-05-10T06:13:07;26.30;20.80
67182;DHT22;54114;53.524;49.396;2023-05-10T06:15:34;26.40;20.60
67182;DHT22;54114;53.524;49.396;2023-05-10T06:18:01;26.50;20.40
67182;DHT22;54114;53.524;49.396;2023-05-10T06:20:27;26.70;20.30
67182;DHT22;54114;53.524;49.396;2023-05-10T06:22:54;26.80;20.30
67182;DHT22;54114;53.524;49.396;2023-05-10T06:25:21;27.00;20.50
67182;DHT22;54114;53.524;49.396;2023-05-10T06:27:47;27.10;20.10
67182;DHT22;54114;53.524;49.396;2023-05-10T06:30:14;27.40;20.00
67182;DHT22;54114;53.524;49.396;2023-05-10T06:32:42;27.70;19.90
67182;DHT22;54114;53.524;49.396;2023-05-10T06:35:09;27.90;19.70
67182;DHT22;54114;53.524;49.396;2023-05-10T06:37:36;28.10;19.60
67182;DHT22;54114;53.524;49.396;2023-05-10T06:40:03;28.20;19.60
67182;DHT22;54114;53.524;49.396;2023-05-10T06:42:31;28.40;19.50
67182;DHT22;54114;53.524;49.396;2023-05-10T06:44:58;28.60;19.30
67182;DHT22;54114;53.524;49.396;2023-05-10T06:47:24;28.80;19.20
67182;DHT22;54114;53.524;49.396;2023-05-10T06:49:51;28.90;19.10
67182;DHT22;54114;53.524;49.396;2023-05-10T06:52:18;28.90;18.90
67182;DHT22;54114;53.524;49.396;2023-05-10T06:54:44;29.00;18.80
67182;DHT22;54114;53.524;49.396;2023-05-10T06:57:11;29.20;18.70
67182;DHT22;54114;53.524;49.396;2023-05-10T06:59:38;29.30;18.60
67182;DHT22;54114;53.524;49.396;2023-05-10T07:02:05;29.20;18.60
67182;DHT22;54114;53.524;49.396;2023-05-10T07:04:31;29.30;18.60
67182;DHT22;54114;53.524;49.396;2023-05-10T07:06:58;29.40;18.50
67182;DHT22;54114;53.524;49.396;2023-05-10T07:09:25;29.60;18.60
67182;DHT22;54114;53.524;49.396;2023-05-10T07:11:52;29.80;18.60
67182;DHT22;54114;53.524;49.396;2023-05-10T07:14:18;30.00;18.40
67182;DHT22;54114;53.524;49.396;2023-05-10T07:16:45;30.20;18.30
67182;DHT22;54114;53.524;49.396;2023-05-10T07:19:13;30.30;18.10
67182;DHT22;54114;53.524;49.396;2023-05-10T07:21:39;30.40;18.00
67182;DHT22;54114;53.524;49.396;2023-05-10T07:24:08;30.60;17.90
67182;DHT22;54114;53.524;49.396;2023-05-10T07:26:35;30.70;17.80
67182;DHT22;54114;53.524;49.396;2023-05-10T07:29:02;30.80;17.70
67182;DHT22;54114;53.524;49.396;2023-05-10T07:31:28;30.80;17.80
67182;DHT22;54114;53.524;49.396;2023-05-10T07:33:56;30.70;17.70
67182;DHT22;54114;53.524;49.396;2023-05-10T07:36:22;30.70;17.70
67182;DHT22;54114;53.524;49.396;2023-05-10T07:38:49;30.80;17.70
67182;DHT22;54114;53.524;49.396;2023-05-10T07:41:16;30.90;17.60
67182;DHT22;54114;53.524;49.396;2023-05-10T07:43:42;30.80;17.50
67182;DHT22;54114;53.524;49.396;2023-05-10T07:46:09;30.50;17.50
67182;DHT22;54114;53.524;49.396;2023-05-10T07:48:37;30.40;17.60
67182;DHT22;54114;53.524;49.396;2023-05-10T07:51:04;30.50;17.60
67182;DHT22;54114;53.524;49.396;2023-05-10T07:53:32;30.70;17.60
67182;DHT22;54114;53.524;49.396;2023-05-10T07:56:18;31.00;17.70
67182;DHT22;54114;53.524;49.396;2023-05-10T07:58:46;31.20;17.50
67182;DHT22;54114;53.524;49.396;2023-05-10T08:01:13;31.40;17.50
67182;DHT22;54114;53.524;49.396;2023-05-10T08:03:40;31.60;17.40
67182;DHT22;54114;53.524;49.396;2023-05-10T08:06:06;31.80;17.40
67182;DHT22;54114;53.524;49.396;2023-05-10T08:08:33;32.00;17.30
67182;DHT22;54114;53.524;49.396;2023-05-10T08:11:00;32.10;17.20
67182;DHT22;54114;53.524;49.396;2023-05-10T08:13:27;31.90;17.00
67182;DHT22;54114;53.524;49.396;2023-05-10T08:15:53;31.80;17.10
67182;DHT22;54114;53.524;49.396;2023-05-10T08:18:20;31.70;17.10
67182;DHT22;54114;53.524;49.396;2023-05-10T08:20:47;31.90;17.20
67182;DHT22;54114;53.524;49.396;2023-05-10T08:23:13;32.00;17.20
67182;DHT22;54114;53.524;49.396;2023-05-10T08:25:40;32.10;17.20
67182;DHT22;54114;53.524;49.396;2023-05-10T08:28:07;32.10;17.70
67182;DHT22;54114;53.524;49.396;2023-05-10T08:30:34;32.10;17.10
67182;DHT22;54114;53.524;49.396;2023-05-10T08:33:00;32.00;17.00
67182;DHT22;54114;53.524;49.396;2023-05-10T08:35:27;31.90;17.00
67182;DHT22;54114;53.524;49.396;2023-05-10T08:37:53;32.00;17.10
67182;DHT22;54114;53.524;49.396;2023-05-10T08:40:20;32.30;17.20
67182;DHT22;54114;53.524;49.396;2023-05-10T08:42:54;32.50;17.10
67182;DHT22;54114;53.524;49.396;2023-05-10T08:45:24;32.70;17.20
67182;DHT22;54114;53.524;49.396;2023-05-10T08:47:52;32.70;17.70
67182;DHT22;54114;53.524;49.396;2023-05-10T08:50:20;32.60;17.10
67182;DHT22;54114;53.524;49.396;2023-05-10T08:52:48;32.60;17.10
67182;DHT22;54114;53.524;49.396;2023-05-10T08:55:17;32.60;17.10
67182;DHT22;54114;53.524;49.396;2023-05-10T08:57:44;32.40;17.10
67182;DHT22;54114;53.524;49.396;2023-05-10T09:00:12;32.30;17.10
67182;DHT22;54114;53.524;49.396;2023-05-10T09:02:40;32.40;17.10
67182;DHT22;54114;53.524;49.396;2023-05-10T09:05:08;32.40;17.00
67182;DHT22;54114;53.524;49.396;2023-05-10T09:07:36;32.40;17.00
67182;DHT22;54114;53.524;49.396;2023-05-10T09:10:04;32.60;17.00
67182;DHT22;54114;53.524;49.396;2023-05-10T09:12:31;32.70;17.00
67182;DHT22;54114;53.524;49.396;2023-05-10T09:14:59;32.70;17.00
67182;DHT22;54114;53.524;49.396;2023-05-10T09:17:27;33.00;17.00
67182;DHT22;54114;53.524;49.396;2023-05-10T09:19:59;33.40;17.00
67182;DHT22;54114;53.524;49.396;2023-05-10T09:22:26;33.30;17.00
67182;DHT22;54114;53.524;49.396;2023-05-10T09:25:06;33.00;16.90
67182;DHT22;54114;53.524;49.396;2023-05-10T09:27:45;32.50;16.90
67182;DHT22;54114;53.524;49.396;2023-05-10T09:30:33;32.20;17.00
67182;DHT22;54114;53.524;49.396;2023-05-10T09:33:01;32.40;17.20
67182;DHT22;54114;53.524;49.396;2023-05-10T09:35:29;32.80;17.00
67182;DHT22;54114;53.524;49.396;2023-05-10T09:38:04;32.90;16.80
67182;DHT22;54114;53.524;49.396;2023-05-10T09:40:31;32.70;16.90
67182;DHT22;54114;53.524;49.396;2023-05-10T09:43:03;32.70;17.00
67182;DHT22;54114;53.524;49.396;2023-05-10T09:45:34;33.20;16.90
67182;DHT22;54114;53.524;49.396;2023-05-10T09:48:02;33.80;16.80
67182;DHT22;54114;53.524;49.396;2023-05-10T09:50:29;34.10;16.90
67182;DHT22;54114;53.524;49.396;2023-05-10T09:52:58;34.10;16.70
67182;DHT22;54114;53.524;49.396;2023-05-10T09:55:39;34.20;16.70
67182;DHT22;54114;53.524;49.396;2023-05-10T09:58:08;34.40;16.70
67182;DHT22;54114;53.524;49.396;2023-05-10T10:00:39;34.50;16.50
67182;DHT22;54114;53.524;49.396;2023-05-10T10:03:12;34.40;16.50
67182;DHT22;54114;53.524;49.396;2023-05-10T10:05:44;34.20;16.50
67182;DHT22;54114;53.524;49.396;2023-05-10T10:08:11;34.30;16.60
67182;DHT22;54114;53.524;49.396;2023-05-10T10:10:39;34.20;16.50
67182;DHT22;54114;53.524;49.396;2023-05-10T10:13:06;34.20;16.50
67182;DHT22;54114;53.524;49.396;2023-05-10T10:15:34;34.10;16.70
67182;DHT22;54114;53.524;49.396;2023-05-10T10:18:01;34.00;16.60
67182;DHT22;54114;53.524;49.396;2023-05-10T10:20:29;34.00;16.70
67182;DHT22;54114;53.524;49.396;2023-05-10T10:22:56;34.20;16.70
67182;DHT22;54114;53.524;49.396;2023-05-10T10:25:25;34.70;16.80
67182;DHT22;54114;53.524;49.396;2023-05-10T10:36:15;34.70;16.60
67182;DHT22;54114;53.524;49.396;2023-05-10T10:49:51;34.40;16.50
67182;DHT22;54114;53.524;49.396;2023-05-10T10:52:34;34.50;16.50
67182;DHT22;54114;53.524;49.396;2023-05-10T10:55:09;34.70;16.30
67182;DHT22;54114;53.524;49.396;2023-05-10T11:00:28;34.80;16.00
67182;DHT22;54114;53.524;49.396;2023-05-10T11:03:09;34.50;16.10
67182;DHT22;54114;53.524;49.396;2023-05-10T11:05:45;34.60;16.20
67182;DHT22;54114;53.524;49.396;2023-05-10T11:08:34;34.50;16.10
67182;DHT22;54114;53.524;49.396;2023-05-10T11:11:08;34.50;16.20
67182;DHT22;54114;53.524;49.396;2023-05-10T11:13:42;34.40;16.30
67182;DHT22;54114;53.524;49.396;2023-05-10T11:16:15;34.20;16.20
67182;DHT22;54114;53.524;49.396;2023-05-10T11:19:12;34.10;16.30
67182;DHT22;54114;53.524;49.396;2023-05-10T11:21:50;34.10;16.20
67182;DHT22;54114;53.524;49.396;2023-05-10T11:24:37;34.30;16.20
67182;DHT22;54114;53.524;49.396;2023-05-10T11:27:04;34.10;16.00
67182;DHT22;54114;53.524;49.396;2023-05-10T11:29:31;34.00;16.10
67182;DHT22;54114;53.524;49.396;2023-05-10T11:31:59;34.00;16.10
67182;DHT22;54114;53.524;49.396;2023-05-10T11:34:31;34.30;16.10
67182;DHT22;54114;53.524;49.396;2023-05-10T11:37:00;34.60;16.20
67182;DHT22;54114;53.524;49.396;2023-05-10T11:39:29;34.80;16.10
67182;DHT22;54114;53.524;49.396;2023-05-10T11:41:57;34.70;16.00
67182;DHT22;54114;53.524;49.396;2023-05-10T11:44:34;34.40;16.20
67182;DHT22;54114;53.524;49.396;2023-05-10T11:47:01;34.00;16.70
67182;DHT22;54114;53.524;49.396;2023-05-10T11:49:28;33.70;16.30
67182;DHT22;54114;53.524;49.396;2023-05-10T11:52:08;33.50;16.30
67182;DHT22;54114;53.524;49.396;2023-05-10T11:54:37;33.40;16.40
67182;DHT22;54114;53.524;49.396;2023-05-10T11:57:04;33.20;16.30
67182;DHT22;54114;53.524;49.396;2023-05-10T11:59:30;32.90;16.30
67182;DHT22;54114;53.524;49.396;2023-05-10T12:01:57;32.80;16.40
67182;DHT22;54114;53.524;49.396;2023-05-10T12:04:25;32.80;16.50
67182;DHT22;54114;53.524;49.396;2023-05-10T12:06:55;32.80;16.60
67182;DHT22;54114;53.524;49.396;2023-05-10T12:09:21;33.00;16.60
67182;DHT22;54114;53.524;49.396;2023-05-10T12:11:48;33.20;16.60
67182;DHT22;54114;53.524;49.396;2023-05-10T12:14:16;33.10;16.50
67182;DHT22;54114;53.524;49.396;2023-05-10T12:16:43;32.90;16.50
67182;DHT22;54114;53.524;49.396;2023-05-10T12:19:10;32.80;16.60
67182;DHT22;54114;53.524;49.396;2023-05-10T12:21:36;32.60;16.70
67182;DHT22;54114;53.524;49.396;2023-05-10T12:24:04;32.40;16.60
67182;DHT22;54114;53.524;49.396;2023-05-10T12:26:31;32.40;16.70
67182;DHT22;54114;53.524;49.396;2023-05-10T12:29:18;32.30;16.70
67182;DHT22;54114;53.524;49.396;2023-05-10T12:31:56;32.20;16.60
67182;DHT22;54114;53.524;49.396;2023-05-10T12:34:34;32.10;16.70
67182;DHT22;54114;53.524;49.396;2023-05-10T12:37:04;32.00;16.70
67182;DHT22;54114;53.524;49.396;2023-05-10T12:39:41;31.80;16.60
67182;DHT22;54114;53.524;49.396;2023-05-10T12:42:10;31.70;16.80
67182;DHT22;54114;53.524;49.396;2023-05-10T12:44:38;31.60;16.70
67182;DHT22;54114;53.524;49.396;2023-05-10T12:47:05;31.60;16.80
67182;DHT22;54114;53.524;49.396;2023-05-10T12:49:31;31.50;16.80
67182;DHT22;54114;53.524;49.396;2023-05-10T12:51:58;31.50;16.90
67182;DHT22;54114;53.524;49.396;2023-05-10T12:54:25;31.40;16.90
67182;DHT22;54114;53.524;49.396;2023-05-10T12:56:51;31.20;16.80
67182;DHT22;54114;53.524;49.396;2023-05-10T12:59:18;31.00;16.70
67182;DHT22;54114;53.524;49.396;2023-05-10T13:01:45;30.80;16.80
67182;DHT22;54114;53.524;49.396;2023-05-10T13:04:11;30.60;16.90
67182;DHT22;54114;53.524;49.396;2023-05-10T13:06:38;30.50;16.90
67182;DHT22;54114;53.524;49.396;2023-05-10T13:09:05;30.50;16.90
67182;DHT22;54114;53.524;49.396;2023-05-10T13:11:31;30.40;16.80
67182;DHT22;54114;53.524;49.396;2023-05-10T13:13:59;30.20;17.00
67182;DHT22;54114;53.524;49.396;2023-05-10T13:16:26;30.10;17.10
67182;DHT22;54114;53.524;49.396;2023-05-10T13:18:52;29.90;17.10
67182;DHT22;54114;53.524;49.396;2023-05-10T13:21:19;29.80;17.10
67182;DHT22;54114;53.524;49.396;2023-05-10T13:23:46;29.70;17.10
67182;DHT22;54114;53.524;49.396;2023-05-10T13:26:12;29.70;17.20
67182;DHT22;54114;53.524;49.396;2023-05-10T13:28:39;29.60;17.20
67182;DHT22;54114;53.524;49.396;2023-05-10T13:31:06;29.70;17.20
67182;DHT22;54114;53.524;49.396;2023-05-10T13:33:33;29.70;17.20
67182;DHT22;54114;53.524;49.396;2023-05-10T13:36:00;29.70;17.30
67182;DHT22;54114;53.524;49.396;2023-05-10T13:38:26;29.60;17.20
67182;DHT22;54114;53.524;49.396;2023-05-10T13:40:53;29.70;17.30
67182;DHT22;54114;53.524;49.396;2023-05-10T13:43:20;29.80;17.30
67182;DHT22;54114;53.524;49.396;2023-05-10T13:45:47;29.90;17.40
67182;DHT22;54114;53.524;49.396;2023-05-10T13:48:13;29.90;17.40
67182;DHT22;54114;53.524;49.396;2023-05-10T13:50:40;29.80;17.50
67182;DHT22;54114;53.524;49.396;2023-05-10T13:53:07;29.80;17.50
67182;DHT22;54114;53.524;49.396;2023-05-10T13:55:34;29.80;17.60
67182;DHT22;54114;53.524;49.396;2023-05-10T13:58:01;29.80;17.50
67182;DHT22;54114;53.524;49.396;2023-05-10T14:00:28;29.80;17.50
67182;DHT22;54114;53.524;49.396;2023-05-10T14:02:55;29.60;17.50
67182;DHT22;54114;53.524;49.396;2023-05-10T14:05:21;29.50;17.50
67182;DHT22;54114;53.524;49.396;2023-05-10T14:07:50;29.40;17.60
67182;DHT22;54114;53.524;49.396;2023-05-10T14:10:17;29.40;17.70
67182;DHT22;54114;53.524;49.396;2023-05-10T14:12:43;29.30;17.70
67182;DHT22;54114;53.524;49.396;2023-05-10T14:15:10;29.10;17.70
67182;DHT22;54114;53.524;49.396;2023-05-10T14:17:37;29.10;17.60
67182;DHT22;54114;53.524;49.396;2023-05-10T14:20:04;29.10;17.70
67182;DHT22;54114;53.524;49.396;2023-05-10T14:22:32;29.00;17.60
67182;DHT22;54114;53.524;49.396;2023-05-10T14:24:58;28.90;17.60
67182;DHT22;54114;53.524;49.396;2023-05-10T14:27:25;28.70;17.60
67182;DHT22;54114;53.524;49.396;2023-05-10T14:29:52;28.50;17.60
67182;DHT22;54114;53.524;49.396;2023-05-10T14:32:19;28.30;17.70
67182;DHT22;54114;53.524;49.396;2023-05-10T14:34:46;28.10;17.80
67182;DHT22;54114;53.524;49.396;2023-05-10T14:37:13;27.90;17.90
67182;DHT22;54114;53.524;49.396;2023-05-10T14:39:41;27.80;17.90
67182;DHT22;54114;53.524;49.396;2023-05-10T14:42:08;27.60;17.90
67182;DHT22;54114;53.524;49.396;2023-05-10T14:44:35;27.30;18.00
67182;DHT22;54114;53.524;49.396;2023-05-10T14:47:01;27.10;18.20
67182;DHT22;54114;53.524;49.396;2023-05-10T14:49:28;27.00;18.20
67182;DHT22;54114;53.524;49.396;2023-05-10T14:51:55;26.90;18.30
67182;DHT22;54114;53.524;49.396;2023-05-10T14:54:21;26.70;18.40
67182;DHT22;54114;53.524;49.396;2023-05-10T14:56:48;26.60;18.50
67182;DHT22;54114;53.524;49.396;2023-05-10T14:59:16;26.50;18.60
67182;DHT22;54114;53.524;49.396;2023-05-10T15:01:42;26.40;19.30
67182;DHT22;54114;53.524;49.396;2023-05-10T15:04:09;26.30;18.90
67182;DHT22;54114;53.524;49.396;2023-05-10T15:06:36;26.20;19.00
67182;DHT22;54114;53.524;49.396;2023-05-10T15:09:02;26.00;19.00
67182;DHT22;54114;53.524;49.396;2023-05-10T15:11:29;26.00;19.10
67182;DHT22;54114;53.524;49.396;2023-05-10T15:13:56;25.90;19.20
67182;DHT22;54114;53.524;49.396;2023-05-10T15:16:23;25.80;19.30
67182;DHT22;54114;53.524;49.396;2023-05-10T15:18:50;25.60;19.30
67182;DHT22;54114;53.524;49.396;2023-05-10T15:21:16;25.40;19.40
67182;DHT22;54114;53.524;49.396;2023-05-10T15:23:43;25.30;19.50
67182;DHT22;54114;53.524;49.396;2023-05-10T15:26:10;25.20;19.60
67182;DHT22;54114;53.524;49.396;2023-05-10T15:28:36;25.10;19.70
67182;DHT22;54114;53.524;49.396;2023-05-10T15:31:03;24.90;19.80
67182;DHT22;54114;53.524;49.396;2023-05-10T15:33:30;24.70;19.90
67182;DHT22;54114;53.524;49.396;2023-05-10T15:35:56;24.50;20.00
67182;DHT22;54114;53.524;49.396;2023-05-10T15:38:23;24.40;20.10
67182;DHT22;54114;53.524;49.396;2023-05-10T15:40:50;24.30;20.20
67182;DHT22;54114;53.524;49.396;2023-05-10T15:43:16;24.20;20.30
67182;DHT22;54114;53.524;49.396;2023-05-10T15:45:43;24.00;20.90
67182;DHT22;54114;53.524;49.396;2023-05-10T15:48:10;23.90;20.50
67182;DHT22;54114;53.524;49.396;2023-05-10T15:50:36;23.80;20.60
67182;DHT22;54114;53.524;49.396;2023-05-10T15:53:03;23.70;20.70
67182;DHT22;54114;53.524;49.396;2023-05-10T15:55:32;23.50;20.80
67182;DHT22;54114;53.524;49.396;2023-05-10T15:58:00;23.40;20.90
67182;DHT22;54114;53.524;49.396;2023-05-10T16:00:26;23.30;21.00
67182;DHT22;54114;53.524;49.396;2023-05-10T16:02:53;23.20;21.10
67182;DHT22;54114;53.524;49.396;2023-05-10T16:05:20;23.10;21.20
67182;DHT22;54114;53.524;49.396;2023-05-10T16:07:47;23.00;21.30
67182;DHT22;54114;53.524;49.396;2023-05-10T16:10:14;22.90;21.40